Ana Sayfa
METAR-TAF:

METAR-TAF

Havaalanları :

Kenneth Kaunda Uluslararası Havalimanı

Lusaka, Zambiya

Enlem: 15-19-51S, Boylam: 028-27-09E, yükseklik: 1152 m

Güncel hava durumu gözlemi

Rapor saat 10:00 UTC de 59 dakika önce yapıldı.
Rüzgar batı/kuzeybatıdan 7 kt
Sıcaklık 26°C
Nem 54%
Basınç 1020 hPa
Görüş mesafesi 10 km veya daha fazla
3000 ft yükseklikte parçalı çok bulutlu
30000 ft yükseklikte parçalı bulutlu

METAR: FLKK 101000Z 29007KT 9999 BKN030 SCT300 26/16 Q1020

Saat: 12:59 (10:59 UTC)


TAF: eksik

4.000'den fazla havaalanı için hava durumu gözlemleri ve tahminleri (METAR ve TAF raporları).

Kullanılabilir istasyonlar harita üzerinde sarı ve kırmızı noktalarla gösterilir.

İstasyonun adını görmek için fareyi noktanın üzerinde gezdirin.

Sonrasında hava gözlem ve tahminlerini görmek için tıklayın.

Haritayı değiştirmek için: yaklaştırmak için siyah artı işaretli yeşil düğmeye ve uzaklaştırmak için de eksi işaretli düğmeye hızla tıklayın; bitişik haritalar için yeşil okları kullanın.


METAR-TAF: